sensor_id;sensor_type;location;lat;lon;timestamp;P1;durP1;ratioP1;P2;durP2;ratioP2
14066;SDS011;7108;42.684;23.350;2023-03-13T00:00:30;198.07;;;71.37;;
14066;SDS011;7108;42.684;23.350;2023-03-13T00:02:59;204.57;;;71.00;;
14066;SDS011;7108;42.684;23.350;2023-03-13T00:05:24;205.40;;;72.30;;
14066;SDS011;7108;42.684;23.350;2023-03-13T00:07:50;209.17;;;72.57;;
14066;SDS011;7108;42.684;23.350;2023-03-13T00:10:15;204.60;;;72.50;;
14066;SDS011;7108;42.684;23.350;2023-03-13T00:12:41;203.40;;;70.63;;
14066;SDS011;7108;42.684;23.350;2023-03-13T00:15:07;188.90;;;69.80;;
14066;SDS011;7108;42.684;23.350;2023-03-13T00:17:33;192.65;;;69.20;;
14066;SDS011;7108;42.684;23.350;2023-03-13T00:19:58;177.43;;;69.77;;
14066;SDS011;7108;42.684;23.350;2023-03-13T00:22:23;184.37;;;69.80;;
14066;SDS011;7108;42.684;23.350;2023-03-13T00:24:49;188.70;;;70.43;;
14066;SDS011;7108;42.684;23.350;2023-03-13T00:27:15;193.03;;;69.63;;
14066;SDS011;7108;42.684;23.350;2023-03-13T00:29:40;197.43;;;70.27;;
14066;SDS011;7108;42.684;23.350;2023-03-13T00:32:06;176.37;;;68.50;;
14066;SDS011;7108;42.684;23.350;2023-03-13T00:34:32;176.30;;;68.50;;
14066;SDS011;7108;42.684;23.350;2023-03-13T00:36:57;182.27;;;69.77;;
14066;SDS011;7108;42.684;23.350;2023-03-13T00:39:22;199.33;;;71.17;;
14066;SDS011;7108;42.684;23.350;2023-03-13T00:41:48;203.03;;;70.20;;
14066;SDS011;7108;42.684;23.350;2023-03-13T00:44:14;209.73;;;72.40;;
14066;SDS011;7108;42.684;23.350;2023-03-13T00:46:39;197.30;;;70.97;;
14066;SDS011;7108;42.684;23.350;2023-03-13T00:49:05;182.43;;;70.17;;
14066;SDS011;7108;42.684;23.350;2023-03-13T00:51:31;183.20;;;70.03;;
14066;SDS011;7108;42.684;23.350;2023-03-13T00:53:57;199.70;;;71.83;;
14066;SDS011;7108;42.684;23.350;2023-03-13T00:56:28;188.20;;;69.53;;
14066;SDS011;7108;42.684;23.350;2023-03-13T00:58:54;184.82;;;68.13;;
14066;SDS011;7108;42.684;23.350;2023-03-13T01:03:53;202.27;;;72.38;;
14066;SDS011;7108;42.684;23.350;2023-03-13T01:06:21;197.13;;;70.82;;
14066;SDS011;7108;42.684;23.350;2023-03-13T01:08:49;207.75;;;71.40;;
14066;SDS011;7108;42.684;23.350;2023-03-13T01:11:17;194.65;;;70.18;;
14066;SDS011;7108;42.684;23.350;2023-03-13T01:13:47;199.82;;;70.93;;
14066;SDS011;7108;42.684;23.350;2023-03-13T01:16:17;189.50;;;70.67;;
14066;SDS011;7108;42.684;23.350;2023-03-13T01:18:54;211.98;;;73.13;;
14066;SDS011;7108;42.684;23.350;2023-03-13T01:21:21;195.40;;;70.25;;
14066;SDS011;7108;42.684;23.350;2023-03-13T01:23:48;212.05;;;72.70;;
14066;SDS011;7108;42.684;23.350;2023-03-13T01:26:14;206.07;;;70.70;;
14066;SDS011;7108;42.684;23.350;2023-03-13T01:28:40;187.13;;;69.97;;
14066;SDS011;7108;42.684;23.350;2023-03-13T01:31:12;175.10;;;68.40;;
14066;SDS011;7108;42.684;23.350;2023-03-13T01:33:40;184.93;;;68.25;;
14066;SDS011;7108;42.684;23.350;2023-03-13T01:36:06;176.03;;;68.70;;
14066;SDS011;7108;42.684;23.350;2023-03-13T01:38:32;197.52;;;70.75;;
14066;SDS011;7108;42.684;23.350;2023-03-13T01:40:58;184.03;;;70.53;;
14066;SDS011;7108;42.684;23.350;2023-03-13T01:43:25;209.37;;;73.63;;
14066;SDS011;7108;42.684;23.350;2023-03-13T01:53:45;215.00;;;72.82;;
14066;SDS011;7108;42.684;23.350;2023-03-13T01:56:16;205.55;;;72.43;;
14066;SDS011;7108;42.684;23.350;2023-03-13T01:58:46;224.63;;;73.35;;
14066;SDS011;7108;42.684;23.350;2023-03-13T02:01:15;208.60;;;74.80;;
14066;SDS011;7108;42.684;23.350;2023-03-13T02:03:42;210.65;;;73.75;;
14066;SDS011;7108;42.684;23.350;2023-03-13T02:06:08;181.70;;;71.00;;
14066;SDS011;7108;42.684;23.350;2023-03-13T02:08:36;197.32;;;72.63;;
14066;SDS011;7108;42.684;23.350;2023-03-13T02:11:09;182.77;;;70.15;;
14066;SDS011;7108;42.684;23.350;2023-03-13T02:13:42;213.48;;;71.57;;
14066;SDS011;7108;42.684;23.350;2023-03-13T02:16:08;192.90;;;70.90;;
14066;SDS011;7108;42.684;23.350;2023-03-13T02:18:36;198.25;;;70.90;;
14066;SDS011;7108;42.684;23.350;2023-03-13T02:21:13;180.27;;;71.23;;
14066;SDS011;7108;42.684;23.350;2023-03-13T02:23:55;215.15;;;73.78;;
14066;SDS011;7108;42.684;23.350;2023-03-13T02:26:22;201.18;;;71.68;;
14066;SDS011;7108;42.684;23.350;2023-03-13T02:28:47;219.53;;;72.67;;
14066;SDS011;7108;42.684;23.350;2023-03-13T02:31:14;204.27;;;72.55;;
14066;SDS011;7108;42.684;23.350;2023-03-13T02:33:40;198.50;;;72.53;;
14066;SDS011;7108;42.684;23.350;2023-03-13T02:36:08;189.20;;;71.85;;
14066;SDS011;7108;42.684;23.350;2023-03-13T02:38:36;179.97;;;70.53;;
14066;SDS011;7108;42.684;23.350;2023-03-13T02:41:05;188.65;;;72.35;;
14066;SDS011;7108;42.684;23.350;2023-03-13T02:43:33;184.10;;;71.60;;
14066;SDS011;7108;42.684;23.350;2023-03-13T02:46:01;184.35;;;72.28;;
14066;SDS011;7108;42.684;23.350;2023-03-13T02:48:34;180.48;;;71.30;;
14066;SDS011;7108;42.684;23.350;2023-03-13T02:51:11;184.40;;;71.07;;
14066;SDS011;7108;42.684;23.350;2023-03-13T02:53:37;200.10;;;73.20;;
14066;SDS011;7108;42.684;23.350;2023-03-13T02:56:03;200.27;;;73.17;;
14066;SDS011;7108;42.684;23.350;2023-03-13T02:58:40;184.20;;;70.13;;
14066;SDS011;7108;42.684;23.350;2023-03-13T03:01:07;182.48;;;70.50;;
14066;SDS011;7108;42.684;23.350;2023-03-13T03:03:33;196.30;;;71.80;;
14066;SDS011;7108;42.684;23.350;2023-03-13T03:06:00;193.57;;;72.85;;
14066;SDS011;7108;42.684;23.350;2023-03-13T03:08:25;217.50;;;75.27;;
14066;SDS011;7108;42.684;23.350;2023-03-13T03:10:51;212.37;;;73.47;;
14066;SDS011;7108;42.684;23.350;2023-03-13T03:13:17;205.37;;;72.70;;
14066;SDS011;7108;42.684;23.350;2023-03-13T03:15:42;198.80;;;73.17;;
14066;SDS011;7108;42.684;23.350;2023-03-13T03:18:08;204.37;;;73.77;;
14066;SDS011;7108;42.684;23.350;2023-03-13T03:20:34;200.53;;;72.70;;
14066;SDS011;7108;42.684;23.350;2023-03-13T03:23:02;187.13;;;73.80;;
14066;SDS011;7108;42.684;23.350;2023-03-13T03:25:28;183.07;;;70.63;;
14066;SDS011;7108;42.684;23.350;2023-03-13T03:27:53;200.73;;;73.03;;
14066;SDS011;7108;42.684;23.350;2023-03-13T03:30:19;200.23;;;70.20;;
14066;SDS011;7108;42.684;23.350;2023-03-13T03:32:47;181.27;;;72.43;;
14066;SDS011;7108;42.684;23.350;2023-03-13T03:35:12;206.73;;;75.60;;
14066;SDS011;7108;42.684;23.350;2023-03-13T03:37:38;190.50;;;72.03;;
14066;SDS011;7108;42.684;23.350;2023-03-13T03:40:04;176.50;;;68.57;;
14066;SDS011;7108;42.684;23.350;2023-03-13T03:42:30;187.30;;;71.00;;
14066;SDS011;7108;42.684;23.350;2023-03-13T03:44:56;205.40;;;74.40;;
14066;SDS011;7108;42.684;23.350;2023-03-13T03:47:22;193.50;;;70.73;;
14066;SDS011;7108;42.684;23.350;2023-03-13T03:49:47;222.13;;;73.77;;
14066;SDS011;7108;42.684;23.350;2023-03-13T03:52:13;201.00;;;71.83;;
14066;SDS011;7108;42.684;23.350;2023-03-13T03:54:38;178.17;;;70.10;;
14066;SDS011;7108;42.684;23.350;2023-03-13T03:57:07;188.00;;;75.43;;
14066;SDS011;7108;42.684;23.350;2023-03-13T03:59:33;195.82;;;74.90;;
14066;SDS011;7108;42.684;23.350;2023-03-13T04:02:03;187.38;;;89.32;;
14066;SDS011;7108;42.684;23.350;2023-03-13T04:04:36;206.63;;;77.07;;
14066;SDS011;7108;42.684;23.350;2023-03-13T04:07:02;179.53;;;76.47;;
14066;SDS011;7108;42.684;23.350;2023-03-13T04:09:27;190.77;;;73.00;;
14066;SDS011;7108;42.684;23.350;2023-03-13T04:11:53;197.97;;;73.50;;
14066;SDS011;7108;42.684;23.350;2023-03-13T04:14:18;204.83;;;78.07;;
14066;SDS011;7108;42.684;23.350;2023-03-13T04:16:44;214.17;;;78.13;;
14066;SDS011;7108;42.684;23.350;2023-03-13T04:19:09;195.40;;;72.87;;
14066;SDS011;7108;42.684;23.350;2023-03-13T04:21:35;186.23;;;75.07;;
14066;SDS011;7108;42.684;23.350;2023-03-13T04:24:00;173.80;;;72.27;;
14066;SDS011;7108;42.684;23.350;2023-03-13T04:26:26;199.20;;;73.00;;
14066;SDS011;7108;42.684;23.350;2023-03-13T04:28:54;188.93;;;73.47;;
14066;SDS011;7108;42.684;23.350;2023-03-13T04:31:20;196.47;;;71.30;;
14066;SDS011;7108;42.684;23.350;2023-03-13T04:33:45;190.27;;;71.37;;
14066;SDS011;7108;42.684;23.350;2023-03-13T04:36:11;190.77;;;72.37;;
14066;SDS011;7108;42.684;23.350;2023-03-13T04:38:36;185.67;;;70.40;;
14066;SDS011;7108;42.684;23.350;2023-03-13T04:41:02;171.77;;;70.90;;
14066;SDS011;7108;42.684;23.350;2023-03-13T04:43:27;177.73;;;73.30;;
14066;SDS011;7108;42.684;23.350;2023-03-13T04:45:53;254.60;;;93.87;;
14066;SDS011;7108;42.684;23.350;2023-03-13T04:48:19;216.07;;;79.00;;
14066;SDS011;7108;42.684;23.350;2023-03-13T04:50:45;197.57;;;73.63;;
14066;SDS011;7108;42.684;23.350;2023-03-13T04:53:12;180.13;;;70.15;;
14066;SDS011;7108;42.684;23.350;2023-03-13T04:55:38;185.67;;;68.73;;
14066;SDS011;7108;42.684;23.350;2023-03-13T04:58:04;184.57;;;69.97;;
14066;SDS011;7108;42.684;23.350;2023-03-13T05:00:29;192.17;;;70.50;;
14066;SDS011;7108;42.684;23.350;2023-03-13T05:02:55;193.67;;;70.60;;
14066;SDS011;7108;42.684;23.350;2023-03-13T05:05:20;194.10;;;73.20;;
14066;SDS011;7108;42.684;23.350;2023-03-13T05:07:45;204.00;;;71.27;;
14066;SDS011;7108;42.684;23.350;2023-03-13T05:10:11;189.33;;;71.87;;
14066;SDS011;7108;42.684;23.350;2023-03-13T05:12:37;185.03;;;69.20;;
14066;SDS011;7108;42.684;23.350;2023-03-13T05:15:02;174.43;;;68.97;;
14066;SDS011;7108;42.684;23.350;2023-03-13T05:17:28;187.13;;;71.90;;
14066;SDS011;7108;42.684;23.350;2023-03-13T05:19:54;190.30;;;72.00;;
14066;SDS011;7108;42.684;23.350;2023-03-13T05:22:19;197.50;;;70.67;;
14066;SDS011;7108;42.684;23.350;2023-03-13T05:24:45;196.90;;;71.63;;
14066;SDS011;7108;42.684;23.350;2023-03-13T05:27:10;172.07;;;67.30;;
14066;SDS011;7108;42.684;23.350;2023-03-13T05:29:36;180.17;;;70.13;;
14066;SDS011;7108;42.684;23.350;2023-03-13T05:32:01;179.20;;;68.87;;
14066;SDS011;7108;42.684;23.350;2023-03-13T05:34:27;181.13;;;69.07;;
14066;SDS011;7108;42.684;23.350;2023-03-13T05:36:52;180.37;;;69.30;;
14066;SDS011;7108;42.684;23.350;2023-03-13T05:39:18;182.00;;;70.30;;
14066;SDS011;7108;42.684;23.350;2023-03-13T05:41:43;192.27;;;70.97;;
14066;SDS011;7108;42.684;23.350;2023-03-13T05:44:09;182.70;;;73.23;;
14066;SDS011;7108;42.684;23.350;2023-03-13T05:46:35;201.60;;;81.20;;
14066;SDS011;7108;42.684;23.350;2023-03-13T05:49:00;200.83;;;72.63;;
14066;SDS011;7108;42.684;23.350;2023-03-13T05:51:29;217.37;;;75.90;;
14066;SDS011;7108;42.684;23.350;2023-03-13T05:53:54;210.93;;;74.57;;
14066;SDS011;7108;42.684;23.350;2023-03-13T05:56:20;213.70;;;75.53;;
14066;SDS011;7108;42.684;23.350;2023-03-13T05:58:45;207.93;;;74.93;;
14066;SDS011;7108;42.684;23.350;2023-03-13T06:01:12;206.23;;;74.97;;
14066;SDS011;7108;42.684;23.350;2023-03-13T06:03:38;227.13;;;75.85;;
14066;SDS011;7108;42.684;23.350;2023-03-13T06:06:03;205.97;;;74.93;;
14066;SDS011;7108;42.684;23.350;2023-03-13T06:08:29;205.50;;;77.63;;
14066;SDS011;7108;42.684;23.350;2023-03-13T06:11:00;212.40;;;75.45;;
14066;SDS011;7108;42.684;23.350;2023-03-13T06:13:27;220.10;;;79.88;;
14066;SDS011;7108;42.684;23.350;2023-03-13T06:15:53;228.80;;;80.15;;
14066;SDS011;7108;42.684;23.350;2023-03-13T06:18:20;200.23;;;72.95;;
14066;SDS011;7108;42.684;23.350;2023-03-13T06:20:47;231.55;;;75.85;;
14066;SDS011;7108;42.684;23.350;2023-03-13T06:23:13;224.10;;;76.43;;
14066;SDS011;7108;42.684;23.350;2023-03-13T06:25:39;226.03;;;75.40;;
14066;SDS011;7108;42.684;23.350;2023-03-13T06:28:04;200.07;;;73.60;;
14066;SDS011;7108;42.684;23.350;2023-03-13T06:30:30;199.60;;;72.63;;
14066;SDS011;7108;42.684;23.350;2023-03-13T06:32:59;230.87;;;77.00;;
14066;SDS011;7108;42.684;23.350;2023-03-13T06:35:24;226.13;;;76.60;;
14066;SDS011;7108;42.684;23.350;2023-03-13T06:37:50;247.60;;;76.37;;
14066;SDS011;7108;42.684;23.350;2023-03-13T06:40:15;202.77;;;76.07;;
14066;SDS011;7108;42.684;23.350;2023-03-13T06:42:41;236.53;;;77.03;;
14066;SDS011;7108;42.684;23.350;2023-03-13T06:45:07;198.60;;;70.53;;
14066;SDS011;7108;42.684;23.350;2023-03-13T06:47:33;213.55;;;75.20;;
14066;SDS011;7108;42.684;23.350;2023-03-13T06:49:58;209.67;;;74.37;;
14066;SDS011;7108;42.684;23.350;2023-03-13T06:52:24;227.53;;;81.50;;
14066;SDS011;7108;42.684;23.350;2023-03-13T06:54:49;241.13;;;77.43;;
14066;SDS011;7108;42.684;23.350;2023-03-13T06:57:15;239.30;;;77.47;;
14066;SDS011;7108;42.684;23.350;2023-03-13T06:59:43;246.57;;;80.30;;
14066;SDS011;7108;42.684;23.350;2023-03-13T07:02:10;214.98;;;76.63;;
14066;SDS011;7108;42.684;23.350;2023-03-13T07:04:36;220.40;;;78.10;;
14066;SDS011;7108;42.684;23.350;2023-03-13T07:07:01;247.93;;;83.83;;
14066;SDS011;7108;42.684;23.350;2023-03-13T07:09:27;245.85;;;88.60;;
14066;SDS011;7108;42.684;23.350;2023-03-13T07:11:53;238.60;;;88.23;;
14066;SDS011;7108;42.684;23.350;2023-03-13T07:14:19;261.13;;;85.80;;
14066;SDS011;7108;42.684;23.350;2023-03-13T07:16:45;256.10;;;80.83;;
14066;SDS011;7108;42.684;23.350;2023-03-13T07:19:11;244.43;;;79.45;;
14066;SDS011;7108;42.684;23.350;2023-03-13T07:21:37;261.65;;;78.60;;
14066;SDS011;7108;42.684;23.350;2023-03-13T07:24:02;240.37;;;80.90;;
14066;SDS011;7108;42.684;23.350;2023-03-13T07:26:28;227.23;;;80.10;;
14066;SDS011;7108;42.684;23.350;2023-03-13T07:28:57;261.47;;;83.97;;
14066;SDS011;7108;42.684;23.350;2023-03-13T07:31:23;251.38;;;79.53;;
14066;SDS011;7108;42.684;23.350;2023-03-13T07:33:48;293.77;;;87.83;;
14066;SDS011;7108;42.684;23.350;2023-03-13T07:36:17;306.60;;;97.82;;
14066;SDS011;7108;42.684;23.350;2023-03-13T07:38:49;279.17;;;90.60;;
14066;SDS011;7108;42.684;23.350;2023-03-13T07:41:18;267.15;;;89.50;;
14066;SDS011;7108;42.684;23.350;2023-03-13T07:43:45;277.30;;;93.25;;
14066;SDS011;7108;42.684;23.350;2023-03-13T07:46:12;249.70;;;87.18;;
14066;SDS011;7108;42.684;23.350;2023-03-13T07:48:40;269.40;;;91.25;;
14066;SDS011;7108;42.684;23.350;2023-03-13T07:51:14;255.90;;;87.82;;
14066;SDS011;7108;42.684;23.350;2023-03-13T07:53:42;277.08;;;91.40;;
14066;SDS011;7108;42.684;23.350;2023-03-13T07:56:12;281.88;;;93.25;;
14066;SDS011;7108;42.684;23.350;2023-03-13T07:58:42;287.65;;;94.70;;
14066;SDS011;7108;42.684;23.350;2023-03-13T08:01:11;242.40;;;90.50;;
14066;SDS011;7108;42.684;23.350;2023-03-13T08:03:51;277.80;;;97.18;;
14066;SDS011;7108;42.684;23.350;2023-03-13T08:06:22;227.38;;;86.93;;
14066;SDS011;7108;42.684;23.350;2023-03-13T08:08:49;263.98;;;88.70;;
14066;SDS011;7108;42.684;23.350;2023-03-13T08:11:17;259.38;;;77.53;;
14066;SDS011;7108;42.684;23.350;2023-03-13T08:13:45;247.98;;;74.20;;
14066;SDS011;7108;42.684;23.350;2023-03-13T08:18:39;281.20;;;83.45;;
14066;SDS011;7108;42.684;23.350;2023-03-13T08:21:07;243.60;;;81.88;;
14066;SDS011;7108;42.684;23.350;2023-03-13T08:23:44;264.42;;;88.10;;
14066;SDS011;7108;42.684;23.350;2023-03-13T08:26:17;257.07;;;94.67;;
14066;SDS011;7108;42.684;23.350;2023-03-13T08:28:45;294.40;;;97.68;;
14066;SDS011;7108;42.684;23.350;2023-03-13T08:31:16;263.08;;;100.25;;
14066;SDS011;7108;42.684;23.350;2023-03-13T08:33:43;310.05;;;105.13;;
14066;SDS011;7108;42.684;23.350;2023-03-13T08:36:13;260.58;;;101.72;;
14066;SDS011;7108;42.684;23.350;2023-03-13T08:38:45;290.42;;;98.97;;
14066;SDS011;7108;42.684;23.350;2023-03-13T08:41:15;239.52;;;92.15;;
14066;SDS011;7108;42.684;23.350;2023-03-13T08:43:46;293.65;;;95.38;;
14066;SDS011;7108;42.684;23.350;2023-03-13T08:46:12;262.13;;;87.00;;
14066;SDS011;7108;42.684;23.350;2023-03-13T08:48:38;263.30;;;88.38;;
14066;SDS011;7108;42.684;23.350;2023-03-13T08:53:34;253.57;;;85.43;;
14066;SDS011;7108;42.684;23.350;2023-03-13T08:56:01;257.60;;;94.90;;
14066;SDS011;7108;42.684;23.350;2023-03-13T08:58:31;250.55;;;85.55;;
14066;SDS011;7108;42.684;23.350;2023-03-13T09:01:07;266.55;;;89.35;;
14066;SDS011;7108;42.684;23.350;2023-03-13T09:03:34;263.88;;;83.57;;
14066;SDS011;7108;42.684;23.350;2023-03-13T09:06:00;254.03;;;83.67;;
14066;SDS011;7108;42.684;23.350;2023-03-13T09:08:29;253.93;;;84.15;;
14066;SDS011;7108;42.684;23.350;2023-03-13T09:10:56;269.35;;;84.30;;
14066;SDS011;7108;42.684;23.350;2023-03-13T09:13:24;250.15;;;82.03;;
14066;SDS011;7108;42.684;23.350;2023-03-13T09:15:57;271.30;;;85.13;;
14066;SDS011;7108;42.684;23.350;2023-03-13T09:18:30;240.38;;;80.53;;
14066;SDS011;7108;42.684;23.350;2023-03-13T09:20:56;275.23;;;85.57;;
14066;SDS011;7108;42.684;23.350;2023-03-13T09:23:22;269.73;;;85.43;;
14066;SDS011;7108;42.684;23.350;2023-03-13T09:25:51;269.10;;;83.82;;
14066;SDS011;7108;42.684;23.350;2023-03-13T09:28:18;254.95;;;82.70;;
14066;SDS011;7108;42.684;23.350;2023-03-13T09:30:43;281.40;;;87.83;;
14066;SDS011;7108;42.684;23.350;2023-03-13T09:33:09;222.47;;;76.37;;
14066;SDS011;7108;42.684;23.350;2023-03-13T09:35:36;222.80;;;81.13;;
14066;SDS011;7108;42.684;23.350;2023-03-13T09:38:03;210.95;;;78.38;;
14066;SDS011;7108;42.684;23.350;2023-03-13T09:40:29;213.67;;;78.57;;
14066;SDS011;7108;42.684;23.350;2023-03-13T09:42:56;220.10;;;78.47;;
14066;SDS011;7108;42.684;23.350;2023-03-13T09:45:32;223.35;;;78.78;;
14066;SDS011;7108;42.684;23.350;2023-03-13T09:48:07;209.07;;;79.43;;
14066;SDS011;7108;42.684;23.350;2023-03-13T09:50:43;247.05;;;80.88;;
14066;SDS011;7108;42.684;23.350;2023-03-13T09:53:22;234.85;;;83.38;;
14066;SDS011;7108;42.684;23.350;2023-03-13T09:56:12;219.80;;;77.00;;
14066;SDS011;7108;42.684;23.350;2023-03-13T09:58:44;256.55;;;83.55;;
14066;SDS011;7108;42.684;23.350;2023-03-13T10:01:16;231.52;;;79.30;;
14066;SDS011;7108;42.684;23.350;2023-03-13T10:04:31;253.82;;;82.75;;
14066;SDS011;7108;42.684;23.350;2023-03-13T10:06:49;250.02;;;81.22;;
14066;SDS011;7108;42.684;23.350;2023-03-13T10:09:19;242.50;;;79.32;;
14066;SDS011;7108;42.684;23.350;2023-03-13T10:11:55;254.18;;;82.22;;
14066;SDS011;7108;42.684;23.350;2023-03-13T10:19:40;224.05;;;76.68;;
14066;SDS011;7108;42.684;23.350;2023-03-13T10:22:13;209.80;;;77.82;;
14066;SDS011;7108;42.684;23.350;2023-03-13T10:27:24;236.07;;;81.90;;
14066;SDS011;7108;42.684;23.350;2023-03-13T10:29:50;266.33;;;84.90;;
14066;SDS011;7108;42.684;23.350;2023-03-13T10:32:16;256.50;;;81.90;;
14066;SDS011;7108;42.684;23.350;2023-03-13T10:34:58;256.38;;;83.53;;
14066;SDS011;7108;42.684;23.350;2023-03-13T10:37:27;253.35;;;84.18;;
14066;SDS011;7108;42.684;23.350;2023-03-13T10:39:56;252.77;;;82.55;;
14066;SDS011;7108;42.684;23.350;2023-03-13T10:42:44;246.25;;;82.25;;
14066;SDS011;7108;42.684;23.350;2023-03-13T10:45:13;216.23;;;81.50;;
14066;SDS011;7108;42.684;23.350;2023-03-13T10:47:41;258.90;;;84.25;;
14066;SDS011;7108;42.684;23.350;2023-03-13T10:50:11;222.13;;;80.43;;
14066;SDS011;7108;42.684;23.350;2023-03-13T10:52:46;258.25;;;82.65;;
14066;SDS011;7108;42.684;23.350;2023-03-13T10:55:15;236.25;;;81.95;;
14066;SDS011;7108;42.684;23.350;2023-03-13T10:57:58;247.45;;;79.65;;
14066;SDS011;7108;42.684;23.350;2023-03-13T11:00:29;255.85;;;83.65;;
14066;SDS011;7108;42.684;23.350;2023-03-13T11:02:59;209.38;;;79.32;;
14066;SDS011;7108;42.684;23.350;2023-03-13T11:07:55;252.67;;;81.83;;
14066;SDS011;7108;42.684;23.350;2023-03-13T11:10:27;242.27;;;85.00;;
14066;SDS011;7108;42.684;23.350;2023-03-13T11:12:54;238.73;;;79.90;;
14066;SDS011;7108;42.684;23.350;2023-03-13T11:15:27;232.15;;;82.28;;
14066;SDS011;7108;42.684;23.350;2023-03-13T11:24:00;218.10;;;82.63;;
14066;SDS011;7108;42.684;23.350;2023-03-13T11:31:53;255.90;;;83.13;;
14066;SDS011;7108;42.684;23.350;2023-03-13T11:34:31;247.83;;;82.53;;
14066;SDS011;7108;42.684;23.350;2023-03-13T11:56:46;250.17;;;83.63;;
14066;SDS011;7108;42.684;23.350;2023-03-13T12:04:38;228.60;;;83.33;;
14066;SDS011;7108;42.684;23.350;2023-03-13T12:15:38;242.73;;;83.60;;
14066;SDS011;7108;42.684;23.350;2023-03-13T12:26:03;226.17;;;82.77;;
14066;SDS011;7108;42.684;23.350;2023-03-13T12:31:23;231.73;;;84.00;;
14066;SDS011;7108;42.684;23.350;2023-03-13T12:39:48;252.27;;;83.83;;
14066;SDS011;7108;42.684;23.350;2023-03-13T12:45:05;219.07;;;80.70;;
14066;SDS011;7108;42.684;23.350;2023-03-13T12:53:07;234.67;;;84.50;;
14066;SDS011;7108;42.684;23.350;2023-03-13T12:58:24;250.80;;;85.73;;
14066;SDS011;7108;42.684;23.350;2023-03-13T13:00:50;245.63;;;82.57;;
14066;SDS011;7108;42.684;23.350;2023-03-13T13:03:19;228.30;;;84.73;;
14066;SDS011;7108;42.684;23.350;2023-03-13T13:06:05;227.07;;;85.50;;
14066;SDS011;7108;42.684;23.350;2023-03-13T13:08:34;240.53;;;85.67;;
14066;SDS011;7108;42.684;23.350;2023-03-13T13:14:00;237.57;;;84.90;;
14066;SDS011;7108;42.684;23.350;2023-03-13T13:16:29;231.57;;;84.13;;
14066;SDS011;7108;42.684;23.350;2023-03-13T13:24:55;301.50;;;91.80;;
14066;SDS011;7108;42.684;23.350;2023-03-13T13:29:55;286.73;;;87.60;;
14066;SDS011;7108;42.684;23.350;2023-03-13T13:32:41;275.80;;;90.73;;
14066;SDS011;7108;42.684;23.350;2023-03-13T13:37:36;263.60;;;87.10;;
14066;SDS011;7108;42.684;23.350;2023-03-13T13:43:17;268.13;;;88.87;;
14066;SDS011;7108;42.684;23.350;2023-03-13T13:46:00;275.90;;;88.83;;
14066;SDS011;7108;42.684;23.350;2023-03-13T13:48:34;230.60;;;84.03;;
14066;SDS011;7108;42.684;23.350;2023-03-13T13:56:26;236.33;;;82.53;;
14066;SDS011;7108;42.684;23.350;2023-03-13T14:01:50;279.10;;;91.67;;
14066;SDS011;7108;42.684;23.350;2023-03-13T14:04:39;227.43;;;82.87;;
14066;SDS011;7108;42.684;23.350;2023-03-13T14:07:06;217.77;;;81.67;;
14066;SDS011;7108;42.684;23.350;2023-03-13T14:12:23;233.10;;;85.10;;
14066;SDS011;7108;42.684;23.350;2023-03-13T14:17:39;259.60;;;86.53;;
14066;SDS011;7108;42.684;23.350;2023-03-13T14:20:29;262.87;;;88.40;;
14066;SDS011;7108;42.684;23.350;2023-03-13T14:23:07;285.40;;;87.97;;
14066;SDS011;7108;42.684;23.350;2023-03-13T14:25:44;275.00;;;89.43;;
14066;SDS011;7108;42.684;23.350;2023-03-13T14:28:21;275.03;;;88.60;;
14066;SDS011;7108;42.684;23.350;2023-03-13T14:30:50;318.83;;;95.20;;
14066;SDS011;7108;42.684;23.350;2023-03-13T14:33:17;298.67;;;90.83;;
14066;SDS011;7108;42.684;23.350;2023-03-13T14:35:43;297.00;;;93.63;;
14066;SDS011;7108;42.684;23.350;2023-03-13T14:38:20;260.10;;;86.23;;
14066;SDS011;7108;42.684;23.350;2023-03-13T14:40:47;290.67;;;87.23;;
14066;SDS011;7108;42.684;23.350;2023-03-13T14:43:22;299.20;;;90.60;;
14066;SDS011;7108;42.684;23.350;2023-03-13T14:46:12;242.73;;;82.50;;
14066;SDS011;7108;42.684;23.350;2023-03-13T14:49:12;305.67;;;92.50;;
14066;SDS011;7108;42.684;23.350;2023-03-13T14:51:41;260.10;;;84.50;;
14066;SDS011;7108;42.684;23.350;2023-03-13T14:54:22;238.87;;;82.77;;
14066;SDS011;7108;42.684;23.350;2023-03-13T14:57:00;307.63;;;89.73;;
14066;SDS011;7108;42.684;23.350;2023-03-13T14:59:36;263.07;;;88.00;;
14066;SDS011;7108;42.684;23.350;2023-03-13T15:04:47;281.70;;;86.30;;
14066;SDS011;7108;42.684;23.350;2023-03-13T15:07:24;273.40;;;88.13;;
14066;SDS011;7108;42.684;23.350;2023-03-13T15:09:54;296.97;;;88.33;;
14066;SDS011;7108;42.684;23.350;2023-03-13T15:12:21;302.80;;;91.30;;
14066;SDS011;7108;42.684;23.350;2023-03-13T15:14:49;318.63;;;90.67;;
14066;SDS011;7108;42.684;23.350;2023-03-13T15:20:02;312.37;;;90.73;;
14066;SDS011;7108;42.684;23.350;2023-03-13T15:22:38;259.27;;;82.93;;
14066;SDS011;7108;42.684;23.350;2023-03-13T15:25:13;250.17;;;79.50;;
14066;SDS011;7108;42.684;23.350;2023-03-13T15:27:49;325.07;;;90.03;;
14066;SDS011;7108;42.684;23.350;2023-03-13T15:30:16;277.87;;;87.27;;
14066;SDS011;7108;42.684;23.350;2023-03-13T15:32:43;278.47;;;83.97;;
14066;SDS011;7108;42.684;23.350;2023-03-13T15:35:31;256.03;;;82.37;;
14066;SDS011;7108;42.684;23.350;2023-03-13T15:37:58;292.97;;;83.20;;
14066;SDS011;7108;42.684;23.350;2023-03-13T15:40:26;301.87;;;87.87;;
14066;SDS011;7108;42.684;23.350;2023-03-13T15:42:55;276.07;;;87.30;;
14066;SDS011;7108;42.684;23.350;2023-03-13T15:45:21;266.47;;;82.33;;
14066;SDS011;7108;42.684;23.350;2023-03-13T15:47:52;306.13;;;86.87;;
14066;SDS011;7108;42.684;23.350;2023-03-13T15:50:18;317.67;;;89.93;;
14066;SDS011;7108;42.684;23.350;2023-03-13T15:52:57;293.83;;;85.23;;
14066;SDS011;7108;42.684;23.350;2023-03-13T15:55:24;311.87;;;99.93;;
14066;SDS011;7108;42.684;23.350;2023-03-13T15:57:50;300.20;;;87.93;;
14066;SDS011;7108;42.684;23.350;2023-03-13T16:00:23;284.43;;;92.30;;
14066;SDS011;7108;42.684;23.350;2023-03-13T16:02:50;261.50;;;80.70;;
14066;SDS011;7108;42.684;23.350;2023-03-13T16:05:16;247.30;;;79.90;;
14066;SDS011;7108;42.684;23.350;2023-03-13T16:07:41;299.97;;;88.77;;
14066;SDS011;7108;42.684;23.350;2023-03-13T16:10:15;271.63;;;86.00;;
14066;SDS011;7108;42.684;23.350;2023-03-13T16:12:46;310.00;;;88.03;;
14066;SDS011;7108;42.684;23.350;2023-03-13T16:15:11;287.43;;;85.90;;
14066;SDS011;7108;42.684;23.350;2023-03-13T16:17:37;275.67;;;85.47;;
14066;SDS011;7108;42.684;23.350;2023-03-13T16:20:02;286.97;;;86.13;;
14066;SDS011;7108;42.684;23.350;2023-03-13T16:22:34;273.53;;;84.40;;
14066;SDS011;7108;42.684;23.350;2023-03-13T16:25:00;274.37;;;84.90;;
14066;SDS011;7108;42.684;23.350;2023-03-13T16:27:28;305.10;;;88.00;;
14066;SDS011;7108;42.684;23.350;2023-03-13T16:29:54;319.63;;;88.87;;
14066;SDS011;7108;42.684;23.350;2023-03-13T16:32:25;290.90;;;87.63;;